createdAt,value
2023-03-02T00:01:26.846Z,28.80
2023-03-02T00:03:54.209Z,28.80
2023-03-02T00:06:21.145Z,28.80
2023-03-02T00:08:47.958Z,28.80
2023-03-02T00:11:15.634Z,28.90
2023-03-02T00:13:44.082Z,28.90
2023-03-02T00:16:11.341Z,28.90
2023-03-02T00:18:38.152Z,28.90
2023-03-02T00:21:05.055Z,28.90
2023-03-02T00:23:31.822Z,28.90
2023-03-02T00:25:58.621Z,28.90
2023-03-02T00:28:25.484Z,28.90
2023-03-02T00:30:52.240Z,28.90
2023-03-02T00:33:20.873Z,28.90
2023-03-02T00:35:47.657Z,29.50
2023-03-02T00:38:14.832Z,29.00
2023-03-02T00:40:51.655Z,29.00
2023-03-02T00:43:18.484Z,29.00
2023-03-02T00:45:45.244Z,29.10
2023-03-02T00:48:12.078Z,29.00
2023-03-02T00:50:40.994Z,29.10
2023-03-02T00:53:09.144Z,29.10
2023-03-02T00:55:36.863Z,29.10
2023-03-02T00:58:04.763Z,29.10
2023-03-02T01:00:34.202Z,29.10
2023-03-02T01:03:01.035Z,29.10
2023-03-02T01:05:27.850Z,29.10
2023-03-02T01:07:54.613Z,29.20
2023-03-02T01:10:21.375Z,29.20
2023-03-02T01:12:48.137Z,29.20
2023-03-02T01:15:15.005Z,29.10
2023-03-02T01:17:43.853Z,29.10
2023-03-02T01:20:12.119Z,29.00
2023-03-02T01:22:39.098Z,29.00
2023-03-02T01:25:06.277Z,29.00
2023-03-02T01:27:33.016Z,29.00
2023-03-02T01:29:59.786Z,29.00
2023-03-02T01:32:26.700Z,29.00
2023-03-02T01:34:54.973Z,29.00
2023-03-02T01:37:22.953Z,29.00
2023-03-02T01:39:50.752Z,28.90
2023-03-02T01:42:18.070Z,28.80
2023-03-02T01:44:49.845Z,28.80
2023-03-02T01:47:22.880Z,28.80
2023-03-02T01:50:07.675Z,28.80
2023-03-02T01:52:38.290Z,28.80
2023-03-02T01:55:08.074Z,28.80
2023-03-02T01:57:43.458Z,28.90
2023-03-02T02:00:23.668Z,29.00
2023-03-02T02:02:53.388Z,29.00
2023-03-02T02:05:24.032Z,29.00
2023-03-02T02:07:50.865Z,29.00
2023-03-02T02:10:17.958Z,29.10
2023-03-02T02:12:44.703Z,29.10
2023-03-02T02:15:11.549Z,29.10
2023-03-02T02:17:38.341Z,29.10
2023-03-02T02:20:36.741Z,29.00
2023-03-02T02:23:24.064Z,28.90
2023-03-02T02:25:55.370Z,28.80
2023-03-02T02:28:28.115Z,28.70
2023-03-02T02:31:18.745Z,28.70
2023-03-02T02:33:49.362Z,28.70
2023-03-02T02:36:20.955Z,28.60
2023-03-02T02:38:51.755Z,28.60
2023-03-02T02:41:22.514Z,28.50
2023-03-02T02:43:49.849Z,28.50
2023-03-02T02:46:17.131Z,28.50
2023-03-02T02:48:43.995Z,28.40
2023-03-02T02:51:17.849Z,28.40
2023-03-02T02:53:50.667Z,28.40
2023-03-02T02:56:19.169Z,28.40
2023-03-02T02:58:50.863Z,28.50
2023-03-02T03:01:25.360Z,28.40
2023-03-02T03:03:56.311Z,28.50
2023-03-02T03:06:38.064Z,28.40
2023-03-02T03:09:06.731Z,28.50
2023-03-02T03:11:40.346Z,28.50
2023-03-02T03:14:19.783Z,28.50
2023-03-02T03:16:48.539Z,28.40
2023-03-02T03:19:24.755Z,28.30
2023-03-02T03:21:54.638Z,28.20
2023-03-02T03:24:21.680Z,28.10
2023-03-02T03:26:48.751Z,28.10
2023-03-02T03:29:16.102Z,28.10
2023-03-02T03:31:43.236Z,28.20
2023-03-02T03:34:10.104Z,28.20
2023-03-02T03:36:38.208Z,28.20
2023-03-02T03:39:06.086Z,28.40
2023-03-02T03:41:33.297Z,28.40
2023-03-02T03:44:00.263Z,28.40
2023-03-02T03:46:27.778Z,28.50
2023-03-02T03:48:54.653Z,28.50
2023-03-02T03:51:21.976Z,28.40
2023-03-02T03:53:59.890Z,28.40
2023-03-02T03:56:32.067Z,28.40
2023-03-02T03:59:06.801Z,28.40
2023-03-02T04:01:39.456Z,28.40
2023-03-02T04:04:09.038Z,28.50
2023-03-02T04:06:36.696Z,28.40
2023-03-02T04:09:05.209Z,28.40
2023-03-02T04:11:38.205Z,28.40
2023-03-02T04:14:06.235Z,28.50
2023-03-02T04:16:33.783Z,28.50
2023-03-02T04:19:01.158Z,28.60
2023-03-02T04:21:28.270Z,28.70
2023-03-02T04:23:55.135Z,28.80
2023-03-02T04:26:21.940Z,28.80
2023-03-02T04:28:50.841Z,28.80
2023-03-02T04:31:18.013Z,28.70
2023-03-02T04:33:45.278Z,28.70
2023-03-02T04:36:12.206Z,28.70
2023-03-02T04:38:39.128Z,28.60
2023-03-02T04:41:06.118Z,28.60
2023-03-02T04:43:33.126Z,28.60
2023-03-02T04:46:00.039Z,28.60
2023-03-02T04:48:27.048Z,28.70
2023-03-02T04:50:53.901Z,28.70
2023-03-02T04:53:20.793Z,28.80
2023-03-02T04:55:47.838Z,28.80
2023-03-02T04:58:14.617Z,28.90
2023-03-02T05:00:41.598Z,28.90
2023-03-02T05:03:08.469Z,29.00
2023-03-02T05:05:35.305Z,29.10
2023-03-02T05:08:02.231Z,29.10
2023-03-02T05:10:29.537Z,29.10
2023-03-02T05:13:02.690Z,29.00
2023-03-02T05:15:35.655Z,29.00
2023-03-02T05:18:03.824Z,29.00
2023-03-02T05:20:31.644Z,29.00
2023-03-02T05:23:01.542Z,29.00
2023-03-02T05:25:31.095Z,28.90
2023-03-02T05:27:58.419Z,28.90
2023-03-02T05:30:25.992Z,29.50
2023-03-02T05:32:53.726Z,29.00
2023-03-02T05:35:22.567Z,29.00
2023-03-02T05:37:49.901Z,29.00
2023-03-02T05:40:19.567Z,29.10
2023-03-02T05:42:46.636Z,29.10
2023-03-02T05:45:26.324Z,29.10
2023-03-02T05:47:53.773Z,29.00
2023-03-02T05:50:21.159Z,28.90
2023-03-02T05:52:48.381Z,28.80
2023-03-02T05:55:16.622Z,28.80
2023-03-02T05:57:43.911Z,28.90
2023-03-02T06:00:12.992Z,28.80
2023-03-02T06:02:40.635Z,28.90
2023-03-02T06:05:12.506Z,28.90
2023-03-02T06:07:39.644Z,28.80
2023-03-02T06:10:08.237Z,28.90
2023-03-02T06:12:36.408Z,28.80
2023-03-02T06:15:05.252Z,28.80
2023-03-02T06:17:32.302Z,28.80
2023-03-02T06:19:59.411Z,28.80
2023-03-02T06:22:26.829Z,28.70
2023-03-02T06:24:55.230Z,28.60
2023-03-02T06:27:22.059Z,28.70
2023-03-02T06:29:49.306Z,28.60
2023-03-02T06:32:16.204Z,28.60
2023-03-02T06:34:43.082Z,28.50
2023-03-02T06:37:10.470Z,28.50
2023-03-02T06:39:37.294Z,28.60
2023-03-02T06:42:04.206Z,28.50
2023-03-02T06:44:31.056Z,28.50
2023-03-02T06:46:57.862Z,28.50
2023-03-02T06:49:24.859Z,28.50
2023-03-02T06:51:51.675Z,28.50
2023-03-02T06:54:18.430Z,28.50
2023-03-02T06:56:45.193Z,28.60
2023-03-02T06:59:12.087Z,28.60
2023-03-02T07:01:38.920Z,28.60
2023-03-02T07:04:05.836Z,28.60
2023-03-02T07:06:32.741Z,28.70
2023-03-02T07:08:59.501Z,28.70
2023-03-02T07:11:26.296Z,28.70
2023-03-02T07:13:53.115Z,28.80
2023-03-02T07:16:19.897Z,28.80
2023-03-02T07:18:46.693Z,28.90
2023-03-02T07:21:13.472Z,28.90
2023-03-02T07:23:40.248Z,29.00
2023-03-02T07:26:08.605Z,29.00
2023-03-02T07:28:39.500Z,29.10
2023-03-02T07:31:06.735Z,29.20
2023-03-02T07:33:33.600Z,29.30
2023-03-02T07:36:00.861Z,29.40
2023-03-02T07:38:27.849Z,29.50
2023-03-02T07:40:54.765Z,29.60
2023-03-02T07:43:23.944Z,29.70
2023-03-02T07:45:51.089Z,29.70
2023-03-02T07:48:18.931Z,29.80
2023-03-02T07:50:46.268Z,29.70
2023-03-02T07:53:13.008Z,29.70
2023-03-02T07:55:42.791Z,29.80
2023-03-02T07:58:09.543Z,29.80
2023-03-02T08:00:36.710Z,29.80
2023-03-02T08:03:03.614Z,29.80
2023-03-02T08:05:30.892Z,29.70
2023-03-02T08:07:57.749Z,29.90
2023-03-02T08:10:24.598Z,30.00
2023-03-02T08:12:51.501Z,30.00
2023-03-02T08:15:18.392Z,30.10
2023-03-02T08:17:45.504Z,30.10
2023-03-02T08:20:12.609Z,30.10
2023-03-02T08:22:39.420Z,30.10
2023-03-02T08:25:07.276Z,30.10
2023-03-02T08:27:34.053Z,30.10
2023-03-02T08:30:00.795Z,30.10
2023-03-02T08:32:27.624Z,30.10
2023-03-02T08:34:54.514Z,30.10
2023-03-02T08:37:21.258Z,30.10
2023-03-02T08:39:48.424Z,30.10
2023-03-02T08:42:15.254Z,30.10
2023-03-02T08:44:41.993Z,30.10
2023-03-02T08:47:08.786Z,30.10
2023-03-02T08:49:37.860Z,30.20
2023-03-02T08:52:05.614Z,30.20
2023-03-02T08:54:34.484Z,30.30
2023-03-02T08:57:02.501Z,30.40
2023-03-02T08:59:29.437Z,30.40
2023-03-02T09:01:56.254Z,30.30
2023-03-02T09:04:23.114Z,30.40
2023-03-02T09:06:50.042Z,30.30
2023-03-02T09:09:16.803Z,30.20
2023-03-02T09:11:44.940Z,30.10
2023-03-02T09:14:12.036Z,30.10
2023-03-02T09:16:38.872Z,30.10
2023-03-02T09:19:05.818Z,30.10
2023-03-02T09:21:32.979Z,30.00
2023-03-02T09:23:59.912Z,30.10
2023-03-02T09:26:27.313Z,30.10
2023-03-02T09:28:54.865Z,30.10
2023-03-02T09:31:21.802Z,30.10
2023-03-02T09:33:48.805Z,30.10
2023-03-02T09:36:22.346Z,30.20
2023-03-02T09:38:49.416Z,30.20
2023-03-02T09:41:19.404Z,30.30
2023-03-02T09:43:59.995Z,30.40
2023-03-02T09:46:49.922Z,30.40
2023-03-02T09:49:32.126Z,30.40
2023-03-02T09:52:31.161Z,30.40
2023-03-02T09:55:21.214Z,30.50
2023-03-02T09:57:48.282Z,30.50
2023-03-02T10:00:19.942Z,30.40
2023-03-02T10:02:48.949Z,30.40
2023-03-02T10:05:21.420Z,30.40
2023-03-02T10:07:48.783Z,30.40
2023-03-02T10:10:18.520Z,30.30
2023-03-02T10:13:03.989Z,30.20
2023-03-02T10:15:47.798Z,30.20
2023-03-02T10:18:42.129Z,30.30
2023-03-02T10:21:21.453Z,30.20
2023-03-02T10:24:14.240Z,30.20
2023-03-02T10:26:42.764Z,30.20
2023-03-02T10:29:35.085Z,30.20
2023-03-02T10:32:18.330Z,30.90
2023-03-02T10:34:45.189Z,30.20
2023-03-02T10:37:21.697Z,30.30
2023-03-02T10:39:49.337Z,30.30
2023-03-02T10:42:40.292Z,30.30
2023-03-02T10:45:26.970Z,30.20
2023-03-02T10:48:04.449Z,30.20
2023-03-02T10:50:32.106Z,30.10
2023-03-02T10:53:01.076Z,30.00
2023-03-02T10:55:28.761Z,30.10
2023-03-02T10:58:07.531Z,30.00
2023-03-02T11:00:35.295Z,30.10
2023-03-02T11:03:06.345Z,30.10
2023-03-02T11:05:41.400Z,30.10
2023-03-02T11:08:18.598Z,30.10
2023-03-02T11:11:03.299Z,30.10
2023-03-02T11:13:38.885Z,30.80
2023-03-02T11:16:17.619Z,30.10
2023-03-02T11:19:12.917Z,30.00
2023-03-02T11:22:21.696Z,30.00
2023-03-02T11:24:54.103Z,30.00
2023-03-02T11:27:36.885Z,30.00
2023-03-02T11:30:22.730Z,30.00
2023-03-02T11:33:19.101Z,30.20
2023-03-02T11:35:54.509Z,30.20
2023-03-02T11:38:33.929Z,30.20
2023-03-02T11:41:05.499Z,30.20
2023-03-02T11:43:32.823Z,30.20
2023-03-02T11:46:13.797Z,30.30
2023-03-02T11:48:49.118Z,30.40
2023-03-02T11:51:23.955Z,30.40
2023-03-02T11:54:17.427Z,30.50
2023-03-02T11:56:44.526Z,30.60
2023-03-02T11:59:22.000Z,30.60
2023-03-02T12:01:52.659Z,30.80
2023-03-02T12:04:32.662Z,30.80
2023-03-02T12:07:02.045Z,30.80
2023-03-02T12:09:37.259Z,30.90
2023-03-02T12:12:32.576Z,31.00
2023-03-02T12:15:00.010Z,31.20
2023-03-02T12:17:26.794Z,31.20
2023-03-02T12:20:25.151Z,31.30
2023-03-02T12:22:52.169Z,31.40
2023-03-02T12:25:18.856Z,31.40
2023-03-02T12:27:50.462Z,31.40
2023-03-02T12:30:24.493Z,31.40
2023-03-02T12:33:11.617Z,31.40
2023-03-02T12:35:38.734Z,31.30
2023-03-02T12:38:31.018Z,31.30
2023-03-02T12:41:14.645Z,31.40
2023-03-02T12:43:58.382Z,31.30
2023-03-02T12:46:31.849Z,31.20
2023-03-02T12:49:24.387Z,31.10
2023-03-02T12:51:55.829Z,31.00
2023-03-02T12:54:25.969Z,31.00
2023-03-02T12:57:06.259Z,31.00
2023-03-02T12:59:33.091Z,30.90
2023-03-02T13:02:20.758Z,31.00
2023-03-02T13:05:02.475Z,30.90
2023-03-02T13:07:41.248Z,31.00
2023-03-02T13:10:33.492Z,30.90
2023-03-02T13:13:00.839Z,31.00
2023-03-02T13:15:28.172Z,31.00
2023-03-02T13:17:57.569Z,31.00
2023-03-02T13:20:29.818Z,31.10
2023-03-02T13:22:57.011Z,31.10
2023-03-02T13:25:29.952Z,31.10
2023-03-02T13:28:07.308Z,31.10
2023-03-02T13:30:37.058Z,31.20
2023-03-02T13:33:22.753Z,31.20
2023-03-02T13:35:49.766Z,31.20
2023-03-02T13:38:21.910Z,31.30
2023-03-02T13:40:51.608Z,31.30
2023-03-02T13:43:30.736Z,31.30
2023-03-02T13:46:07.005Z,31.50
2023-03-02T13:48:34.185Z,31.70
2023-03-02T13:51:14.117Z,31.80
2023-03-02T13:53:45.886Z,31.90
2023-03-02T13:56:17.767Z,32.00
2023-03-02T13:58:46.031Z,32.10
2023-03-02T14:01:13.524Z,32.20
2023-03-02T14:03:40.493Z,32.20
2023-03-02T14:06:07.628Z,32.20
2023-03-02T14:08:34.837Z,32.20
2023-03-02T14:11:03.215Z,32.10
2023-03-02T14:13:56.640Z,32.00
2023-03-02T14:16:24.298Z,31.90
2023-03-02T14:18:52.684Z,31.90
2023-03-02T14:21:25.390Z,31.90
2023-03-02T14:23:53.854Z,31.80
2023-03-02T14:26:37.851Z,31.70
2023-03-02T14:29:16.649Z,31.60
2023-03-02T14:31:43.431Z,31.50
2023-03-02T14:34:14.887Z,31.50
2023-03-02T14:36:43.560Z,31.40
2023-03-02T14:39:22.733Z,31.40
2023-03-02T14:41:53.915Z,31.30
2023-03-02T14:44:21.870Z,31.30
2023-03-02T14:46:48.779Z,31.30
2023-03-02T14:49:15.671Z,31.30
2023-03-02T14:51:45.708Z,31.30
2023-03-02T14:54:18.971Z,31.40
2023-03-02T14:56:46.613Z,31.40
2023-03-02T14:59:14.428Z,31.40
2023-03-02T15:01:43.510Z,31.50
2023-03-02T15:04:10.442Z,31.50
2023-03-02T15:06:39.746Z,31.50
2023-03-02T15:09:07.982Z,31.60
2023-03-02T15:11:35.210Z,31.70
2023-03-02T15:14:02.198Z,31.70
2023-03-02T15:16:29.503Z,31.80
2023-03-02T15:18:58.825Z,31.90
2023-03-02T15:21:25.869Z,31.90
2023-03-02T15:23:52.736Z,31.90
2023-03-02T15:26:19.627Z,31.90
2023-03-02T15:28:50.169Z,31.90
2023-03-02T15:31:18.058Z,31.90
2023-03-02T15:33:47.689Z,31.90
2023-03-02T15:36:14.643Z,31.90
2023-03-02T15:38:41.543Z,32.20
2023-03-02T15:41:12.570Z,31.70
2023-03-02T15:43:39.905Z,31.80
2023-03-02T15:46:10.029Z,31.60
2023-03-02T15:48:37.498Z,31.50
2023-03-02T15:51:06.974Z,31.40
2023-03-02T15:53:37.894Z,31.40
2023-03-02T15:56:12.129Z,31.30
2023-03-02T15:58:39.266Z,31.30
2023-03-02T16:01:10.815Z,31.20
2023-03-02T16:04:07.173Z,31.20
2023-03-02T16:06:34.064Z,31.10
2023-03-02T16:09:00.921Z,31.10
2023-03-02T16:11:27.720Z,31.10
2023-03-02T16:13:54.564Z,31.10
2023-03-02T16:16:22.079Z,31.00
2023-03-02T16:18:58.688Z,30.90
2023-03-02T16:21:28.364Z,30.80
2023-03-02T16:24:03.291Z,30.80
2023-03-02T16:26:32.206Z,30.70
2023-03-02T16:28:59.779Z,30.70
2023-03-02T16:31:28.051Z,30.70
2023-03-02T16:33:56.017Z,30.60
2023-03-02T16:36:22.907Z,30.60
2023-03-02T16:38:49.886Z,30.60
2023-03-02T16:41:22.233Z,30.60
2023-03-02T16:43:54.961Z,30.60
2023-03-02T16:46:23.201Z,30.70
2023-03-02T16:48:50.244Z,30.70
2023-03-02T16:51:18.801Z,30.70
2023-03-02T16:53:45.919Z,30.80
2023-03-02T16:56:13.179Z,30.90
2023-03-02T16:58:41.422Z,31.00
2023-03-02T17:01:10.834Z,31.10
2023-03-02T17:03:37.882Z,31.20
2023-03-02T17:06:09.668Z,31.30
2023-03-02T17:08:37.092Z,31.30
2023-03-02T17:11:04.122Z,32.00
2023-03-02T17:13:30.975Z,31.30
2023-03-02T17:15:58.256Z,31.30
2023-03-02T17:18:27.557Z,31.20
2023-03-02T17:20:55.985Z,31.30
2023-03-02T17:23:23.392Z,31.20
2023-03-02T17:25:50.229Z,31.10
2023-03-02T17:28:17.309Z,31.10
2023-03-02T17:30:44.809Z,31.10
2023-03-02T17:33:11.902Z,31.00
2023-03-02T17:35:38.873Z,30.90
2023-03-02T17:38:05.980Z,30.80
2023-03-02T17:40:32.947Z,30.90
2023-03-02T17:42:59.699Z,30.80
2023-03-02T17:45:30.691Z,30.80
2023-03-02T17:47:58.957Z,30.80
2023-03-02T17:50:26.961Z,30.70
2023-03-02T17:52:54.195Z,30.80
2023-03-02T17:55:21.192Z,30.60
2023-03-02T17:57:48.040Z,30.70
2023-03-02T18:00:19.467Z,30.60
2023-03-02T18:02:46.342Z,30.60
2023-03-02T18:05:13.498Z,30.50
2023-03-02T18:07:40.323Z,30.50
2023-03-02T18:10:07.996Z,30.50
2023-03-02T18:12:35.407Z,30.40
2023-03-02T18:15:02.649Z,30.30
2023-03-02T18:17:30.277Z,30.30
2023-03-02T18:19:57.130Z,30.20
2023-03-02T18:22:24.003Z,30.10
2023-03-02T18:24:51.950Z,30.10
2023-03-02T18:27:19.127Z,30.10
2023-03-02T18:29:46.069Z,30.10
2023-03-02T18:32:13.059Z,30.00
2023-03-02T18:34:40.247Z,30.00
2023-03-02T18:37:07.479Z,30.00
2023-03-02T18:39:34.563Z,30.00
2023-03-02T18:42:01.527Z,30.00
2023-03-02T18:44:31.096Z,30.00
2023-03-02T18:46:58.761Z,30.00
2023-03-02T18:49:26.021Z,30.10
2023-03-02T18:51:55.090Z,30.10
2023-03-02T18:54:22.556Z,30.10
2023-03-02T18:56:49.466Z,30.10
2023-03-02T18:59:17.775Z,30.10
2023-03-02T19:01:46.183Z,30.00
2023-03-02T19:04:14.361Z,30.00
2023-03-02T19:06:43.113Z,30.00
2023-03-02T19:09:10.908Z,30.00
2023-03-02T19:11:37.960Z,30.00
2023-03-02T19:14:05.015Z,30.00
2023-03-02T19:16:32.373Z,30.00
2023-03-02T19:18:59.423Z,30.50
2023-03-02T19:21:26.289Z,29.80
2023-03-02T19:23:53.180Z,29.80
2023-03-02T19:26:20.077Z,29.80
2023-03-02T19:28:46.951Z,29.70
2023-03-02T19:31:13.984Z,29.80
2023-03-02T19:33:42.277Z,29.80
2023-03-02T19:36:09.964Z,29.70
2023-03-02T19:38:41.469Z,29.70
2023-03-02T19:41:11.687Z,29.70
2023-03-02T19:43:40.456Z,29.80
2023-03-02T19:46:10.746Z,29.70
2023-03-02T19:48:38.307Z,29.90
2023-03-02T19:51:06.675Z,29.90
2023-03-02T19:53:34.153Z,29.90
2023-03-02T19:56:14.949Z,29.90
2023-03-02T19:58:54.033Z,30.00
2023-03-02T20:01:25.833Z,30.00
2023-03-02T20:03:56.973Z,30.00
2023-03-02T20:06:32.684Z,30.00
2023-03-02T20:09:02.658Z,30.00
2023-03-02T20:11:31.319Z,30.00
2023-03-02T20:14:02.251Z,30.00
2023-03-02T20:16:31.567Z,30.00
2023-03-02T20:19:00.701Z,30.00
2023-03-02T20:21:28.450Z,30.00
2023-03-02T20:23:55.289Z,30.00
2023-03-02T20:26:24.424Z,30.00
2023-03-02T20:28:53.175Z,30.00
2023-03-02T20:31:20.384Z,30.60
2023-03-02T20:33:50.094Z,29.90
2023-03-02T20:36:22.081Z,29.90
2023-03-02T20:38:54.383Z,29.90
2023-03-02T20:41:21.546Z,29.90
2023-03-02T20:43:48.428Z,29.90
2023-03-02T20:46:22.744Z,29.90
2023-03-02T20:48:49.816Z,29.90
2023-03-02T20:51:16.695Z,29.90
2023-03-02T20:53:45.563Z,29.80
2023-03-02T20:56:13.913Z,29.80
2023-03-02T20:58:43.301Z,29.80
2023-03-02T21:01:11.918Z,29.80
2023-03-02T21:03:40.025Z,29.70
2023-03-02T21:06:07.798Z,29.70
2023-03-02T21:08:38.963Z,29.70
2023-03-02T21:11:11.293Z,29.70
2023-03-02T21:13:39.166Z,29.80
2023-03-02T21:16:09.385Z,29.80
2023-03-02T21:18:36.243Z,29.80
2023-03-02T21:21:03.400Z,29.80
2023-03-02T21:23:30.342Z,29.80
2023-03-02T21:25:57.426Z,29.80
2023-03-02T21:28:24.202Z,29.80
2023-03-02T21:30:51.021Z,29.80
2023-03-02T21:33:17.824Z,29.90
2023-03-02T21:35:46.283Z,29.90
2023-03-02T21:38:13.194Z,29.90
2023-03-02T21:40:45.810Z,30.00
2023-03-02T21:43:14.744Z,30.00
2023-03-02T21:45:42.021Z,29.90
2023-03-02T21:48:09.047Z,29.90
2023-03-02T21:50:38.393Z,30.00
2023-03-02T21:53:06.019Z,30.00
2023-03-02T21:55:33.511Z,30.00
2023-03-02T21:58:00.330Z,30.00
2023-03-02T22:00:30.181Z,30.00
2023-03-02T22:02:57.229Z,30.00
2023-03-02T22:05:24.333Z,30.00
2023-03-02T22:07:51.362Z,29.90
2023-03-02T22:10:32.519Z,29.90
2023-03-02T22:13:26.856Z,29.90
2023-03-02T22:16:06.154Z,29.90
2023-03-02T22:18:32.972Z,29.90
2023-03-02T22:20:59.697Z,29.90
2023-03-02T22:23:27.019Z,29.90
2023-03-02T22:25:59.878Z,29.80
2023-03-02T22:28:28.468Z,29.80
2023-03-02T22:31:00.373Z,29.70
2023-03-02T22:33:29.387Z,29.70
2023-03-02T22:36:18.523Z,29.70
2023-03-02T22:38:45.258Z,29.70
2023-03-02T22:41:18.384Z,29.60
2023-03-02T22:43:46.120Z,29.60
2023-03-02T22:46:15.452Z,29.60
2023-03-02T22:48:44.746Z,29.50
2023-03-02T22:51:20.095Z,29.50
2023-03-02T22:53:52.707Z,29.40
2023-03-02T22:56:35.736Z,29.40
2023-03-02T22:59:24.835Z,29.40
2023-03-02T23:02:00.447Z,29.40
2023-03-02T23:04:35.316Z,29.40
2023-03-02T23:07:11.302Z,29.30
2023-03-02T23:09:38.063Z,29.30
2023-03-02T23:12:28.398Z,29.60
2023-03-02T23:14:57.205Z,29.30
2023-03-02T23:17:31.573Z,29.30
2023-03-02T23:19:58.366Z,29.30
2023-03-02T23:22:28.498Z,29.30
2023-03-02T23:24:56.267Z,29.30
2023-03-02T23:27:24.338Z,29.30
2023-03-02T23:29:54.314Z,29.20
2023-03-02T23:32:21.396Z,29.20
2023-03-02T23:34:48.295Z,29.20
2023-03-02T23:37:15.037Z,29.20
2023-03-02T23:39:42.559Z,29.20
2023-03-02T23:42:10.059Z,29.30
2023-03-02T23:44:36.819Z,29.30
2023-03-02T23:47:03.624Z,29.30
2023-03-02T23:49:30.507Z,29.30
2023-03-02T23:51:57.256Z,29.30
2023-03-02T23:54:24.010Z,29.40
2023-03-02T23:56:50.734Z,29.40
2023-03-02T23:59:17.497Z,29.40
